Time;durP1;ratioP1;P1;durP2;ratioP2;P2;SDS_P1;SDS_P2;PMS_P1;PMS_P2;Temp;Humidity;BMP_temperature;BMP_pressure;BME280_temperature;BME280_humidity;BME280_pressure;Samples;Min_cycle;Max_cycle;Signal;HPM_P1;HPM_P2
2023/03/24 00:01:50;;;;;;;8.60;4.30;;;;;;;10.56;71.57;99784.34;103684;279;38629;-73
2023/03/24 00:04:26;;;;;;;7.00;4.70;;;;;;;10.57;71.67;99785.33;103673;279;39416;-72
2023/03/24 00:07:02;;;;;;;5.60;4.40;;;;;;;10.58;71.78;99785.27;103695;279;38925;-70
2023/03/24 00:09:36;;;;;;;6.40;4.50;;;;;;;10.60;71.78;99785.05;103663;279;38288;-72
2023/03/24 00:12:11;;;;;;;7.50;4.90;;;;;;;10.59;71.86;99787.17;103668;279;38436;-73
2023/03/24 00:14:47;;;;;;;5.50;4.30;;;;;;;10.56;71.70;99792.90;103703;279;39863;-74
2023/03/24 00:17:24;;;;;;;5.50;4.30;;;;;;;10.54;71.66;99792.81;103705;279;38833;-72
2023/03/24 00:19:58;;;;;;;7.20;4.60;;;;;;;10.54;72.04;99794.91;103675;279;38223;-71
2023/03/24 00:22:32;;;;;;;9.20;6.00;;;;;;;10.55;72.05;99800.46;103717;279;38587;-72
2023/03/24 00:25:07;;;;;;;7.40;5.40;;;;;;;10.56;72.28;99801.98;103711;279;39469;-72
2023/03/24 00:27:43;;;;;;;8.80;5.80;;;;;;;10.55;72.33;99802.00;103709;279;39691;-72
2023/03/24 00:30:19;;;;;;;8.30;6.00;;;;;;;10.53;72.09;99803.32;103694;279;38272;-72
2023/03/24 00:32:53;;;;;;;7.30;5.40;;;;;;;10.50;72.02;99800.34;103678;279;40558;-72
2023/03/24 00:35:27;;;;;;;10.10;5.80;;;;;;;10.47;72.07;99798.02;103707;279;38384;-73
2023/03/24 00:38:03;;;;;;;9.10;5.60;;;;;;;10.43;72.09;99796.48;103660;279;38249;-71
2023/03/24 00:40:38;;;;;;;8.20;5.80;;;;;;;10.37;71.90;99799.02;103701;279;38447;-72
2023/03/24 00:43:12;;;;;;;7.30;5.70;;;;;;;10.29;71.91;99794.67;103697;279;39516;-72
2023/03/24 00:45:46;;;;;;;9.70;6.40;;;;;;;10.22;72.02;99790.30;103693;279;38487;-71
2023/03/24 00:48:23;;;;;;;8.90;6.10;;;;;;;10.13;72.10;99788.21;103685;279;38248;-72
2023/03/24 00:50:57;;;;;;;9.90;6.10;;;;;;;10.06;72.06;99787.48;103712;279;38259;-74
2023/03/24 00:53:33;;;;;;;9.10;6.10;;;;;;;9.98;72.31;99785.59;103712;279;38491;-73
2023/03/24 00:56:10;;;;;;;8.00;6.10;;;;;;;9.92;72.28;99784.67;103768;279;38281;-73
2023/03/24 00:58:44;;;;;;;8.70;6.30;;;;;;;9.83;72.38;99782.96;103762;279;38371;-73
2023/03/24 01:01:20;;;;;;;9.20;6.30;;;;;;;9.74;72.47;99780.92;103769;279;38393;-73
2023/03/24 01:03:55;;;;;;;6.90;5.80;;;;;;;9.65;72.71;99779.21;103750;279;38373;-73
2023/03/24 01:06:29;;;;;;;9.70;4.80;;;;;;;9.56;72.79;99777.55;103771;279;38244;-72
2023/03/24 01:09:04;;;;;;;7.30;5.20;;;;;;;9.46;73.00;99777.45;103794;279;39366;-71
2023/03/24 01:11:41;;;;;;;6.80;5.00;;;;;;;9.39;73.11;99779.14;103786;279;39820;-74
2023/03/24 01:14:15;;;;;;;8.50;6.20;;;;;;;9.32;73.36;99778.91;103776;278;38915;-71
2023/03/24 01:16:50;;;;;;;7.70;5.70;;;;;;;9.24;73.41;99777.14;103766;279;38850;-72
2023/03/24 01:19:24;;;;;;;7.80;5.40;;;;;;;9.19;73.59;99777.89;103783;279;38766;-72
2023/03/24 01:21:59;;;;;;;7.00;5.20;;;;;;;9.13;73.77;99777.45;103650;280;39702;-72
2023/03/24 01:24:33;;;;;;;11.00;5.60;;;;;;;9.07;73.99;99780.46;103811;279;39411;-72
2023/03/24 01:27:08;;;;;;;7.60;5.20;;;;;;;9.05;74.27;99780.73;103731;279;38257;-72
2023/03/24 01:29:42;;;;;;;7.90;5.20;;;;;;;8.99;74.13;99779.25;103769;279;39839;-70
2023/03/24 01:32:16;;;;;;;7.30;5.40;;;;;;;8.92;74.26;99776.73;103734;279;38499;-70
2023/03/24 01:34:50;;;;;;;7.50;5.50;;;;;;;8.86;74.36;99774.19;103756;279;39018;-72
2023/03/24 01:37:24;;;;;;;9.40;5.20;;;;;;;8.81;74.54;99771.80;103741;279;38291;-71
2023/03/24 01:39:58;;;;;;;8.60;5.40;;;;;;;8.76;74.60;99779.63;103721;279;37932;-73
2023/03/24 01:42:33;;;;;;;10.50;6.50;;;;;;;8.74;74.79;99787.00;103711;279;39641;-73
2023/03/24 01:45:44;;;;;;;10.20;6.80;;;;;;;8.73;75.06;99783.77;103750;279;38466;-70
2023/03/24 01:48:21;;;;;;;9.10;7.40;;;;;;;8.67;75.29;99767.66;103755;279;38397;-72
2023/03/24 01:50:57;;;;;;;10.60;6.60;;;;;;;8.63;75.21;99767.45;103750;279;38880;-71
2023/03/24 01:53:32;;;;;;;9.50;6.30;;;;;;;8.61;75.21;99769.81;103750;279;38483;-72
2023/03/24 01:56:07;;;;;;;9.90;6.80;;;;;;;8.55;75.23;99760.67;103750;279;38500;-73
2023/03/24 01:58:43;;;;;;;8.10;6.50;;;;;;;8.44;75.15;99765.27;103767;279;39347;-73
2023/03/24 02:01:17;;;;;;;9.00;7.00;;;;;;;8.39;75.49;99764.76;103789;279;38601;-72
2023/03/24 02:03:53;;;;;;;10.00;6.90;;;;;;;8.34;75.67;99757.96;103686;280;39988;-72
2023/03/24 02:06:27;;;;;;;8.20;6.60;;;;;;;8.28;75.54;99759.08;103735;279;39021;-72
2023/03/24 02:09:03;;;;;;;8.90;6.70;;;;;;;8.22;75.75;99763.98;103627;279;175409;-72
2023/03/24 02:11:39;;;;;;;9.90;7.00;;;;;;;8.17;75.90;99760.18;103743;279;38571;-72
2023/03/24 02:14:13;;;;;;;9.90;6.90;;;;;;;8.12;75.81;99758.83;103735;279;38517;-72
2023/03/24 02:17:20;;;;;;;9.10;6.80;;;;;;;8.05;75.94;99757.85;103732;279;38239;-71
2023/03/24 02:20:25;;;;;;;9.00;6.80;;;;;;;7.94;76.07;99754.44;103586;279;189907;-73
2023/03/24 02:23:29;;;;;;;9.30;5.50;;;;;;;7.88;76.06;99756.76;103770;279;38471;-73
2023/03/24 02:26:38;;;;;;;7.10;5.20;;;;;;;7.81;76.21;99757.02;103474;279;38477;-72
2023/03/24 02:29:40;;;;;;;8.10;5.80;;;;;;;7.73;76.29;99759.55;103778;279;39446;-73
2023/03/24 02:32:33;;;;;;;9.00;4.40;;;;;;;7.63;76.63;99757.30;103749;279;38458;-72
2023/03/24 02:35:43;;;;;;;6.70;4.50;;;;;;;7.55;76.75;99757.75;103763;279;39099;-71
2023/03/24 02:38:39;;;;;;;8.50;4.60;;;;;;;7.47;77.03;99759.44;103767;279;38492;-72
2023/03/24 02:41:15;;;;;;;6.10;4.60;;;;;;;7.41;77.36;99759.64;103743;279;38514;-72
2023/03/24 02:43:53;;;;;;;6.90;4.70;;;;;;;7.36;77.57;99758.77;103756;279;38863;-72
2023/03/24 02:46:31;;;;;;;8.30;5.00;;;;;;;7.31;77.59;99764.16;103777;279;38435;-73
2023/03/24 02:49:15;;;;;;;7.00;4.60;;;;;;;7.28;77.72;99759.77;103787;279;38429;-73
2023/03/24 02:51:53;;;;;;;8.30;5.00;;;;;;;7.24;77.84;99755.02;103771;279;38400;-72
2023/03/24 02:54:35;;;;;;;10.00;4.90;;;;;;;7.20;77.88;99755.50;103695;279;38485;-72
2023/03/24 02:57:10;;;;;;;6.80;5.00;;;;;;;7.19;78.19;99756.59;103678;280;39709;-72
2023/03/24 02:59:46;;;;;;;7.80;5.30;;;;;;;7.17;78.27;99755.08;103672;280;38910;-72
2023/03/24 03:02:22;;;;;;;8.60;5.00;;;;;;;7.11;78.16;99755.81;103662;280;38227;-73
2023/03/24 03:04:59;;;;;;;7.70;4.60;;;;;;;7.05;77.98;99759.48;103564;280;38768;-74
2023/03/24 03:07:36;;;;;;;7.00;4.60;;;;;;;7.01;78.21;99759.44;103674;280;38581;-74
2023/03/24 03:10:13;;;;;;;6.50;4.50;;;;;;;6.97;78.20;99763.04;103679;280;39956;-72
2023/03/24 03:12:48;;;;;;;6.00;4.70;;;;;;;6.93;78.31;99769.93;103646;280;38262;-72
2023/03/24 03:15:24;;;;;;;9.30;5.70;;;;;;;6.88;78.29;99769.23;103671;280;38240;-72
2023/03/24 03:18:01;;;;;;;7.90;5.00;;;;;;;6.82;78.58;99768.38;103660;280;40107;-72
2023/03/24 03:20:38;;;;;;;7.80;4.80;;;;;;;6.78;78.67;99771.99;103737;280;39995;-73
2023/03/24 03:23:14;;;;;;;6.20;4.90;;;;;;;6.74;79.01;99771.58;103672;280;40246;-73
2023/03/24 03:25:51;;;;;;;6.20;4.70;;;;;;;6.73;79.07;99774.41;103714;280;38279;-72
2023/03/24 03:28:28;;;;;;;6.40;4.90;;;;;;;6.72;79.20;99773.58;103679;280;39327;-72
2023/03/24 03:31:05;;;;;;;9.20;5.50;;;;;;;6.71;79.32;99775.86;103693;280;38794;-72
2023/03/24 03:33:42;;;;;;;7.90;4.90;;;;;;;6.69;79.26;99776.96;103681;280;39422;-72
2023/03/24 03:36:20;;;;;;;8.40;5.30;;;;;;;6.66;79.41;99776.70;103720;268;39395;-72
2023/03/24 03:39:00;;;;;;;7.00;4.90;;;;;;;6.66;79.80;99775.31;103661;280;38276;-73
2023/03/24 03:41:34;;;;;;;8.30;5.10;;;;;;;6.66;79.69;99774.27;103657;280;38308;-70
2023/03/24 03:44:08;;;;;;;10.00;5.50;;;;;;;6.68;80.06;99769.00;103647;280;39607;-72
2023/03/24 03:46:42;;;;;;;8.00;5.70;;;;;;;6.69;80.08;99767.06;103653;280;38352;-72
2023/03/24 03:49:16;;;;;;;7.40;5.10;;;;;;;6.68;80.12;99763.65;103657;280;38750;-73
2023/03/24 03:51:50;;;;;;;7.30;5.00;;;;;;;6.70;80.51;99762.71;103670;280;38415;-74
2023/03/24 03:54:24;;;;;;;8.60;4.90;;;;;;;6.71;80.57;99764.21;103682;280;38585;-69
2023/03/24 03:56:58;;;;;;;9.00;5.40;;;;;;;6.77;80.69;99761.64;103683;268;38524;-69
2023/03/24 03:59:34;;;;;;;7.50;5.60;;;;;;;6.81;80.85;99756.48;103649;280;38541;-71
2023/03/24 04:02:18;;;;;;;6.40;5.00;;;;;;;6.83;80.89;99764.54;103644;280;38515;-71
2023/03/24 04:05:15;;;;;;;8.80;5.70;;;;;;;6.83;81.00;99766.11;103720;280;38496;-71
2023/03/24 04:08:18;;;;;;;7.60;5.30;;;;;;;6.83;80.81;99768.73;103677;280;38273;-72
2023/03/24 04:11:23;;;;;;;8.10;5.30;;;;;;;6.82;80.72;99763.03;103564;280;38253;-72
2023/03/24 04:14:06;;;;;;;6.20;4.70;;;;;;;6.81;81.07;99760.98;103663;280;38242;-72
2023/03/24 04:16:50;;;;;;;6.20;5.00;;;;;;;6.81;81.10;99758.73;103652;280;38736;-70
2023/03/24 04:19:36;;;;;;;6.90;4.70;;;;;;;6.83;81.43;99760.04;103726;280;39677;-73
2023/03/24 04:22:22;;;;;;;8.20;5.40;;;;;;;6.89;81.91;99755.33;103678;280;40151;-73
2023/03/24 04:25:00;;;;;;;5.60;5.00;;;;;;;6.94;82.11;99752.05;103679;280;38227;-72
2023/03/24 04:27:38;;;;;;;7.80;5.00;;;;;;;7.00;82.29;99747.52;103711;280;39187;-72
2023/03/24 04:30:16;;;;;;;6.80;4.80;;;;;;;7.06;82.40;99748.37;103712;280;38007;-72
2023/03/24 04:32:52;;;;;;;6.60;4.60;;;;;;;7.13;82.61;99745.52;103701;280;38381;-74
2023/03/24 04:35:31;;;;;;;5.80;4.90;;;;;;;7.19;82.75;99743.04;103697;280;39051;-73
2023/03/24 04:38:08;;;;;;;7.80;4.90;;;;;;;7.26;82.81;99737.25;103673;280;38242;-74
2023/03/24 04:40:42;;;;;;;6.50;4.50;;;;;;;7.26;82.59;99729.48;103717;280;39605;-72
2023/03/24 04:43:18;;;;;;;6.20;4.50;;;;;;;7.30;82.56;99727.44;103665;280;38493;-72
2023/03/24 04:45:52;;;;;;;6.70;5.20;;;;;;;7.36;82.69;99725.66;103702;280;38551;-72
2023/03/24 04:48:26;;;;;;;8.00;5.00;;;;;;;7.39;82.40;99724.13;103588;280;172731;-70
2023/03/24 04:51:02;;;;;;;8.30;5.20;;;;;;;7.40;82.37;99720.63;103718;280;38236;-73
2023/03/24 04:53:35;;;;;;;5.80;5.00;;;;;;;7.42;82.24;99720.03;103656;280;39642;-73
2023/03/24 04:56:33;;;;;;;6.70;4.60;;;;;;;7.45;82.03;99717.50;103700;280;38473;-72
2023/03/24 04:59:07;;;;;;;9.40;5.40;;;;;;;7.46;81.98;99718.14;103671;280;40146;-71
2023/03/24 05:01:48;;;;;;;7.70;4.70;;;;;;;7.51;82.08;99715.91;103569;280;188674;-71
2023/03/24 05:04:23;;;;;;;7.50;5.00;;;;;;;7.56;82.20;99716.79;103713;280;38282;-73
2023/03/24 05:06:59;;;;;;;7.40;5.10;;;;;;;7.59;81.98;99717.88;103651;280;38226;-72
2023/03/24 05:09:33;;;;;;;7.20;4.70;;;;;;;7.60;82.04;99719.56;103580;281;38515;-73
2023/03/24 05:12:11;;;;;;;5.60;5.00;;;;;;;7.66;82.13;99720.20;103679;280;38271;-72
2023/03/24 05:14:46;;;;;;;7.50;4.80;;;;;;;7.76;82.24;99717.92;103685;280;38420;-72
2023/03/24 05:17:20;;;;;;;7.40;5.40;;;;;;;7.89;82.40;99713.81;103710;280;39406;-72
2023/03/24 05:19:56;;;;;;;7.60;5.20;;;;;;;8.07;82.62;99712.43;103712;280;38463;-72
2023/03/24 05:22:32;;;;;;;7.30;5.50;;;;;;;8.26;82.91;99711.38;103640;280;38315;-72
2023/03/24 05:25:07;;;;;;;7.30;5.40;;;;;;;8.42;82.95;99702.60;103669;280;38483;-71
2023/03/24 05:27:43;;;;;;;8.70;5.90;;;;;;;8.56;82.77;99704.46;103556;280;39863;-73
2023/03/24 05:30:19;;;;;;;8.20;5.80;;;;;;;8.67;82.52;99704.69;103724;280;39434;-71
2023/03/24 05:32:53;;;;;;;12.00;7.20;;;;;;;8.78;82.55;99700.79;103631;280;38227;-73
2023/03/24 05:35:29;;;;;;;10.70;7.00;;;;;;;8.92;82.88;99695.67;103552;281;38780;-72
2023/03/24 05:38:04;;;;;;;9.70;6.60;;;;;;;9.10;82.93;99685.17;103667;280;38245;-70
2023/03/24 05:40:40;;;;;;;9.00;6.20;;;;;;;9.26;82.71;99687.79;103106;280;907421;-72
2023/03/24 05:43:14;;;;;;;10.80;7.20;;;;;;;9.42;82.52;99679.58;103707;280;38288;-74
2023/03/24 05:45:50;;;;;;;10.10;7.40;;;;;;;9.57;82.38;99673.20;103598;280;39431;-71
2023/03/24 05:48:26;;;;;;;13.10;8.70;;;;;;;9.72;82.22;99672.69;103693;280;39232;-72
2023/03/24 05:51:00;;;;;;;14.10;8.60;;;;;;;9.86;82.00;99678.80;103701;268;38267;-75
2023/03/24 05:53:35;;;;;;;14.10;9.10;;;;;;;9.98;81.60;99688.56;103664;280;38357;-73
2023/03/24 05:56:13;;;;;;;14.50;9.40;;;;;;;10.08;81.31;99688.23;103563;269;39452;-72
2023/03/24 05:58:48;;;;;;;10.80;7.90;;;;;;;10.18;81.03;99682.20;103108;270;635181;-71
2023/03/24 06:01:24;;;;;;;13.80;9.20;;;;;;;10.29;80.67;99682.23;103687;280;39399;-73
2023/03/24 06:03:59;;;;;;;14.20;9.20;;;;;;;10.39;80.64;99678.98;103708;280;38295;-73
2023/03/24 06:06:33;;;;;;;13.10;9.40;;;;;;;10.49;80.38;99679.35;103691;280;38439;-71
2023/03/24 06:09:08;;;;;;;13.40;9.40;;;;;;;10.56;79.98;99682.46;103688;280;38230;-72
2023/03/24 06:11:42;;;;;;;12.20;8.70;;;;;;;10.64;79.78;99670.95;103658;280;38201;-73
2023/03/24 06:14:16;;;;;;;11.30;8.10;;;;;;;10.72;79.50;99668.96;103683;280;39562;-72
2023/03/24 06:16:50;;;;;;;12.00;8.50;;;;;;;10.81;79.33;99669.57;103694;280;39899;-72
2023/03/24 06:19:24;;;;;;;12.80;9.00;;;;;;;10.93;79.18;99669.88;103743;280;39400;-73
2023/03/24 06:21:59;;;;;;;15.00;9.10;;;;;;;11.02;78.79;99670.58;103682;280;38238;-72
2023/03/24 06:24:33;;;;;;;11.00;8.70;;;;;;;11.12;78.47;99667.65;103669;280;38663;-73
2023/03/24 06:27:07;;;;;;;11.20;8.20;;;;;;;11.20;78.09;99666.91;103660;280;38235;-74
2023/03/24 06:29:42;;;;;;;12.00;8.50;;;;;;;11.28;77.85;99662.10;103669;279;39438;-72
2023/03/24 06:32:16;;;;;;;11.60;8.80;;;;;;;11.36;77.60;99663.45;103702;280;39458;-73
2023/03/24 06:34:50;;;;;;;15.20;9.40;;;;;;;11.45;77.43;99662.83;103714;280;38234;-72
2023/03/24 06:37:26;;;;;;;14.90;8.50;;;;;;;11.54;77.28;99668.58;103677;280;38858;-72
2023/03/24 06:40:09;;;;;;;13.50;8.50;;;;;;;11.63;77.06;99666.88;103765;280;39442;-72
2023/03/24 06:42:43;;;;;;;15.60;8.60;;;;;;;11.73;76.80;99667.94;103536;280;38794;-72
2023/03/24 06:45:18;;;;;;;12.30;9.00;;;;;;;11.79;76.27;99662.52;103676;280;38240;-72
2023/03/24 06:47:55;;;;;;;13.60;8.90;;;;;;;11.86;76.23;99664.63;103655;280;39522;-74
2023/03/24 06:50:33;;;;;;;14.40;9.30;;;;;;;11.92;75.68;99660.64;103723;280;38231;-73
2023/03/24 06:53:13;;;;;;;14.50;9.50;;;;;;;11.95;75.48;99655.93;103411;280;175266;-70
2023/03/24 06:55:47;;;;;;;14.80;9.80;;;;;;;11.97;75.16;99659.29;103707;280;39467;-75
2023/03/24 06:58:22;;;;;;;13.60;9.00;;;;;;;12.00;75.13;99661.41;103687;280;39547;-73
2023/03/24 07:00:56;;;;;;;16.80;9.60;;;;;;;12.04;74.98;99658.41;103684;280;38255;-72
2023/03/24 07:03:30;;;;;;;12.40;8.80;;;;;;;12.07;74.68;99660.31;103687;280;38807;-72
2023/03/24 07:06:04;;;;;;;14.80;9.20;;;;;;;12.11;74.70;99663.07;103570;281;38425;-74
2023/03/24 07:08:39;;;;;;;11.80;9.00;;;;;;;12.14;74.42;99662.02;103662;280;38249;-74
2023/03/24 07:11:13;;;;;;;13.10;9.10;;;;;;;12.17;74.35;99670.09;103727;280;38267;-72
2023/03/24 07:13:47;;;;;;;14.20;8.50;;;;;;;12.22;74.42;99674.38;103660;280;39009;-72
2023/03/24 07:16:21;;;;;;;11.50;8.70;;;;;;;12.27;74.32;99672.48;103725;280;38617;-72
2023/03/24 07:18:56;;;;;;;14.10;9.00;;;;;;;12.35;74.16;99673.45;103673;280;39291;-71
2023/03/24 07:21:30;;;;;;;12.80;8.90;;;;;;;12.40;73.97;99671.74;103624;280;38290;-73
2023/03/24 07:24:04;;;;;;;16.40;8.60;;;;;;;12.46;74.03;99673.02;103756;280;40279;-72
2023/03/24 07:26:38;;;;;;;12.20;8.70;;;;;;;12.50;73.73;99669.45;103718;280;38304;-73
2023/03/24 07:29:12;;;;;;;12.90;9.00;;;;;;;12.52;73.64;99672.11;103738;280;39599;-72
2023/03/24 07:31:47;;;;;;;10.30;8.30;;;;;;;12.56;73.51;99673.48;103680;280;38825;-72
2023/03/24 07:34:21;;;;;;;10.70;7.30;;;;;;;12.59;73.41;99676.79;103708;280;39943;-73
2023/03/24 07:36:55;;;;;;;10.40;8.00;;;;;;;12.66;73.56;99673.06;103711;280;38484;-74
2023/03/24 07:39:28;;;;;;;12.50;7.40;;;;;;;12.76;73.51;99670.55;103539;281;38379;-72
2023/03/24 07:42:02;;;;;;;9.10;6.80;;;;;;;12.84;73.49;99667.84;103691;280;38247;-71
2023/03/24 07:44:37;;;;;;;11.60;7.60;;;;;;;12.90;73.40;99663.80;103699;280;38804;-73
2023/03/24 07:47:11;;;;;;;10.70;8.00;;;;;;;12.96;73.45;99660.50;103687;280;38392;-73
2023/03/24 07:49:45;;;;;;;10.80;6.70;;;;;;;12.99;73.33;99663.61;103709;280;38246;-73
2023/03/24 07:52:19;;;;;;;10.40;7.30;;;;;;;13.02;73.40;99657.30;103696;280;39509;-74
2023/03/24 07:54:54;;;;;;;7.30;6.40;;;;;;;13.06;73.87;99654.45;103701;280;38811;-73
2023/03/24 07:57:28;;;;;;;8.80;7.10;;;;;;;13.09;73.88;99655.80;103711;280;38411;-73
2023/03/24 08:00:05;;;;;;;8.60;6.20;;;;;;;13.12;74.02;99647.76;103673;280;38244;-72
2023/03/24 08:02:39;;;;;;;8.70;6.30;;;;;;;13.15;74.00;99642.88;103668;280;38247;-72
2023/03/24 08:05:14;;;;;;;7.80;5.60;;;;;;;13.20;74.12;99639.10;103729;280;39702;-74
2023/03/24 08:07:52;;;;;;;8.90;5.90;;;;;;;13.24;74.22;99636.60;103651;280;38715;-72
2023/03/24 08:10:28;;;;;;;8.30;5.80;;;;;;;13.31;74.65;99633.73;103696;280;38227;-72
2023/03/24 08:13:03;;;;;;;8.50;6.10;;;;;;;13.38;75.02;99632.05;103679;280;38263;-72
2023/03/24 08:15:37;;;;;;;9.50;6.10;;;;;;;13.45;75.02;99629.50;103706;280;38975;-72
2023/03/24 08:18:11;;;;;;;7.90;6.60;;;;;;;13.49;75.06;99627.86;103676;280;38378;-74
2023/03/24 08:20:45;;;;;;;9.10;6.00;;;;;;;13.52;74.99;99625.02;103705;280;38482;-74
2023/03/24 08:23:20;;;;;;;7.70;5.60;;;;;;;13.57;75.25;99625.27;103658;280;38349;-74
2023/03/24 08:25:54;;;;;;;7.70;6.20;;;;;;;13.66;75.50;99619.80;103693;280;38924;-72
2023/03/24 08:28:27;;;;;;;9.00;6.00;;;;;;;13.81;75.58;99615.38;103666;280;38218;-72
2023/03/24 08:31:01;;;;;;;8.10;5.90;;;;;;;13.96;75.52;99612.31;103666;280;40769;-74
2023/03/24 08:33:35;;;;;;;8.30;6.30;;;;;;;14.07;75.30;99606.70;103675;280;39053;-74
2023/03/24 08:36:10;;;;;;;7.40;6.10;;;;;;;14.08;74.73;99596.40;103696;280;39871;-73
2023/03/24 08:38:46;;;;;;;9.30;6.20;;;;;;;14.07;74.70;99589.82;103675;280;38599;-72
2023/03/24 08:41:21;;;;;;;7.60;5.90;;;;;;;14.10;74.78;99583.19;103673;280;38260;-72
2023/03/24 08:43:56;;;;;;;8.10;6.70;;;;;;;14.12;74.48;99582.48;103701;280;39817;-71
2023/03/24 08:46:30;;;;;;;7.60;6.30;;;;;;;14.09;74.25;99581.29;103657;280;38274;-77
2023/03/24 08:49:04;;;;;;;9.50;6.80;;;;;;;14.05;74.11;99574.87;103764;280;38343;-73
2023/03/24 08:51:37;;;;;;;8.80;6.10;;;;;;;14.00;73.94;99564.17;103654;280;39280;-74
2023/03/24 08:54:12;;;;;;;9.40;6.50;;;;;;;13.92;73.53;99562.19;103683;281;38776;-73
2023/03/24 08:56:46;;;;;;;9.30;6.40;;;;;;;13.83;73.47;99555.62;103685;280;39417;-73
2023/03/24 08:59:20;;;;;;;9.90;6.70;;;;;;;13.79;73.63;99551.65;103704;281;38690;-72
2023/03/24 09:01:54;;;;;;;9.70;7.10;;;;;;;13.80;73.80;99547.23;103522;281;41241;-72
2023/03/24 09:04:28;;;;;;;7.90;6.80;;;;;;;13.87;73.91;99547.13;103691;280;38407;-74
2023/03/24 09:07:02;;;;;;;8.70;6.50;;;;;;;14.06;74.64;99544.13;103676;280;38278;-74
2023/03/24 09:09:38;;;;;;;8.00;6.00;;;;;;;14.35;74.30;99541.35;103676;280;40005;-73
2023/03/24 09:12:12;;;;;;;8.80;6.50;;;;;;;14.63;73.83;99530.84;103656;280;39234;-74
2023/03/24 09:14:49;;;;;;;9.90;7.20;;;;;;;14.87;73.25;99523.23;103662;280;39481;-73
2023/03/24 09:17:23;;;;;;;8.10;7.00;;;;;;;15.18;72.19;99512.80;103683;280;38281;-72
2023/03/24 09:19:57;;;;;;;9.80;6.80;;;;;;;15.60;71.56;99512.84;103709;280;38231;-70
2023/03/24 09:22:31;;;;;;;12.20;7.20;;;;;;;16.15;71.77;99506.87;103694;280;38708;-72
2023/03/24 09:25:06;;;;;;;9.10;6.60;;;;;;;16.63;69.91;99500.88;103666;280;38846;-71
2023/03/24 09:27:41;;;;;;;9.50;6.30;;;;;;;17.26;68.02;99500.74;103601;280;174861;-72
2023/03/24 09:30:16;;;;;;;10.40;6.90;;;;;;;17.91;66.68;99486.31;103688;280;39749;-73
2023/03/24 09:32:50;;;;;;;8.50;6.70;;;;;;;18.56;65.36;99478.08;103651;280;39409;-74
2023/03/24 09:35:24;;;;;;;7.40;5.80;;;;;;;18.96;62.96;99477.48;103688;280;38429;-72
2023/03/24 09:38:40;;;;;;;6.90;5.70;;;;;;;19.04;61.65;99473.41;103725;280;38217;-73
2023/03/24 09:41:19;;;;;;;7.90;5.40;;;;;;;19.09;60.49;99480.37;103715;280;40107;-72
2023/03/24 09:43:59;;;;;;;6.20;5.60;;;;;;;19.09;58.78;99476.88;103694;280;38254;-73
2023/03/24 09:46:37;;;;;;;6.60;5.90;;;;;;;18.97;58.76;99472.73;103675;280;38766;-74
2023/03/24 09:49:13;;;;;;;7.50;5.50;;;;;;;18.93;58.91;99466.41;103735;280;39691;-74
2023/03/24 09:51:47;;;;;;;6.80;5.50;;;;;;;18.83;58.33;99467.16;103707;280;38447;-72
2023/03/24 09:54:26;;;;;;;7.30;6.00;;;;;;;18.66;58.32;99468.00;103702;280;38818;-72
2023/03/24 09:57:00;;;;;;;7.50;5.90;;;;;;;18.57;58.97;99462.05;103703;280;38505;-74
2023/03/24 10:03:10;;;;;;;7.30;6.10;;;;;;;18.39;58.73;99462.59;103738;279;41294;-72
2023/03/24 10:05:47;;;;;;;7.60;6.20;;;;;;;18.17;58.54;99459.80;103681;279;38456;-71
2023/03/24 10:08:25;;;;;;;7.40;6.30;;;;;;;18.00;58.98;99462.11;103748;279;38470;-73
2023/03/24 10:11:02;;;;;;;8.90;5.90;;;;;;;17.90;58.92;99459.05;103717;279;39618;-74
2023/03/24 10:13:48;;;;;;;6.90;6.20;;;;;;;17.76;58.94;99458.80;103702;279;39927;-72
2023/03/24 10:16:29;;;;;;;7.70;6.30;;;;;;;17.62;59.84;99451.66;103750;279;39418;-73
2023/03/24 10:19:10;;;;;;;7.20;5.80;;;;;;;17.53;59.71;99451.53;103724;279;38592;-72
2023/03/24 10:21:47;;;;;;;7.30;6.20;;;;;;;17.38;59.96;99452.23;103751;279;38378;-70
2023/03/24 10:24:25;;;;;;;7.20;5.60;;;;;;;17.26;60.31;99451.74;103720;279;38759;-73
2023/03/24 10:27:02;;;;;;;7.80;6.10;;;;;;;17.20;60.58;99444.10;103693;279;39364;-74
2023/03/24 10:29:37;;;;;;;6.70;6.00;;;;;;;17.12;60.80;99433.48;103755;279;39415;-70
2023/03/24 10:32:18;;;;;;;8.50;6.20;;;;;;;17.06;60.94;99431.16;103701;279;38631;-72
2023/03/24 10:34:54;;;;;;;8.50;6.60;;;;;;;17.01;61.32;99430.48;103722;279;38266;-74
2023/03/24 10:37:28;;;;;;;7.80;6.50;;;;;;;16.99;61.21;99433.28;103672;279;39155;-74
2023/03/24 10:40:05;;;;;;;7.40;6.10;;;;;;;16.96;61.19;99430.70;103702;279;38282;-74
2023/03/24 10:42:39;;;;;;;7.60;6.40;;;;;;;16.95;61.78;99427.97;103678;279;38251;-74
2023/03/24 10:45:26;;;;;;;8.10;6.50;;;;;;;16.95;61.91;99417.57;103676;279;38391;-73
2023/03/24 10:48:01;;;;;;;6.50;5.80;;;;;;;17.02;62.07;99423.17;103698;279;39399;-72
2023/03/24 10:50:37;;;;;;;7.60;6.40;;;;;;;17.11;62.17;99426.86;103700;279;38283;-71
2023/03/24 10:53:21;;;;;;;7.90;5.70;;;;;;;17.17;61.63;99423.45;103740;279;40423;-72
2023/03/24 10:55:55;;;;;;;9.30;6.10;;;;;;;17.20;61.87;99424.77;103692;279;38662;-74
2023/03/24 10:58:37;;;;;;;7.80;6.40;;;;;;;17.28;61.93;99424.09;103712;279;38502;-73
2023/03/24 11:01:23;;;;;;;8.20;6.00;;;;;;;17.43;61.85;99423.59;103644;279;39432;-72
2023/03/24 11:04:00;;;;;;;8.60;6.10;;;;;;;17.51;61.10;99425.36;103677;279;39826;-74
2023/03/24 11:06:34;;;;;;;8.30;5.80;;;;;;;17.59;60.88;99426.39;103032;280;900572;-74
2023/03/24 11:09:21;;;;;;;7.10;5.70;;;;;;;17.60;59.87;99423.82;103598;269;39469;-72
2023/03/24 11:11:58;;;;;;;9.40;6.40;;;;;;;17.48;59.51;99426.67;103676;280;38258;-72
2023/03/24 11:14:32;;;;;;;9.90;5.10;;;;;;;17.40;60.10;99420.47;103732;280;38285;-73
2023/03/24 11:17:16;;;;;;;9.00;5.30;;;;;;;17.35;60.04;99415.98;103663;280;38817;-74
2023/03/24 11:19:58;;;;;;;8.30;5.30;;;;;;;17.31;60.36;99411.70;103733;280;39438;-74
2023/03/24 11:22:32;;;;;;;7.20;5.20;;;;;;;17.27;60.40;99412.17;103680;280;39578;-72
2023/03/24 11:25:09;;;;;;;8.50;5.60;;;;;;;17.23;60.30;99413.77;103724;280;38551;-70
2023/03/24 11:27:46;;;;;;;7.20;5.10;;;;;;;17.15;60.18;99406.27;103672;280;38839;-72
2023/03/24 11:30:20;;;;;;;6.40;5.10;;;;;;;17.07;60.38;99402.17;103547;281;39434;-73
2023/03/24 11:32:57;;;;;;;8.60;5.30;;;;;;;17.01;60.54;99402.66;103665;280;38521;-72
2023/03/24 11:35:31;;;;;;;7.90;5.10;;;;;;;16.96;60.65;99398.48;103565;280;39847;-72
2023/03/24 11:38:14;;;;;;;8.60;5.00;;;;;;;16.96;60.91;99394.30;103522;281;38729;-71
2023/03/24 11:40:58;;;;;;;8.20;5.30;;;;;;;16.97;61.02;99384.61;103692;280;38269;-72
2023/03/24 11:43:32;;;;;;;8.60;5.90;;;;;;;17.04;61.24;99380.19;103060;280;915940;-70
2023/03/24 11:46:12;;;;;;;8.20;5.30;;;;;;;17.14;61.11;99373.27;103699;280;39475;-72
2023/03/24 11:48:51;;;;;;;8.20;5.50;;;;;;;17.24;60.60;99369.09;103751;280;39116;-72
2023/03/24 11:51:28;;;;;;;8.20;5.30;;;;;;;17.25;60.56;99366.73;103675;280;38468;-72
2023/03/24 11:54:03;;;;;;;7.70;5.30;;;;;;;17.25;60.37;99364.23;103683;280;38834;-74
2023/03/24 11:56:40;;;;;;;6.30;5.10;;;;;;;17.24;60.31;99359.73;103690;280;38612;-74
2023/03/24 11:59:22;;;;;;;8.70;5.20;;;;;;;17.22;60.14;99353.92;103722;280;38285;-72
2023/03/24 12:02:01;;;;;;;7.80;5.40;;;;;;;17.20;60.11;99354.38;103672;280;39425;-72
2023/03/24 12:04:44;;;;;;;7.60;5.00;;;;;;;17.19;60.17;99353.83;103684;280;39592;-73
2023/03/24 12:07:50;;;;;;;7.50;5.10;;;;;;;17.19;60.08;99348.00;103686;280;38475;-73
2023/03/24 12:10:37;;;;;;;7.80;5.00;;;;;;;17.19;60.22;99345.36;103315;280;188367;-72
2023/03/24 12:13:14;;;;;;;7.10;5.10;;;;;;;17.24;60.13;99339.08;103676;280;39422;-72
2023/03/24 12:16:00;;;;;;;11.00;5.60;;;;;;;17.34;60.17;99332.17;103685;280;38500;-69
2023/03/24 12:19:05;;;;;;;9.70;5.30;;;;;;;17.48;60.50;99326.34;103694;280;38695;-71
2023/03/24 12:21:49;;;;;;;5.80;4.90;;;;;;;17.69;60.34;99321.42;103485;281;39048;-70
2023/03/24 12:24:33;;;;;;;8.30;5.30;;;;;;;17.86;59.82;99318.30;103696;280;38245;-72
2023/03/24 12:27:10;;;;;;;5.30;4.60;;;;;;;17.99;59.33;99308.12;103537;281;38234;-72